Time;durP1;ratioP1;P1;durP2;ratioP2;P2;SDS_P1;SDS_P2;PMS_P1;PMS_P2;Temp;Humidity;BMP_temperature;BMP_pressure;BME280_temperature;BME280_humidity;BME280_pressure;Samples;Min_cycle;Max_cycle;Signal;HPM_P1;HPM_P2
2021/11/13 00:00:20;;;;;;;63.75;28.40;;;6.50;99.90;;;;;;5048516;28;20067;-72
2021/11/13 00:02:46;;;;;;;66.60;29.17;;;6.50;99.90;;;;;;5053021;28;20733;-73
2021/11/13 00:05:12;;;;;;;60.22;26.85;;;6.50;99.90;;;;;;5051284;28;20080;-72
2021/11/13 00:07:38;;;;;;;52.92;25.33;;;6.50;99.90;;;;;;5046777;28;20025;-72
2021/11/13 00:10:05;;;;;;;59.85;27.35;;;6.50;99.90;;;;;;5050476;28;20032;-73
2021/11/13 00:12:31;;;;;;;66.25;28.38;;;6.50;99.90;;;;;;5049751;28;20025;-72
2021/11/13 00:15:08;;;;;;;62.47;26.30;;;6.40;99.90;;;;;;5041375;28;20025;-72
2021/11/13 00:17:34;;;;;;;62.78;27.02;;;6.40;99.90;;;;;;5044990;28;20029;-73
2021/11/13 00:20:00;;;;;;;66.28;29.00;;;6.40;99.90;;;;;;5050223;28;20399;-72
2021/11/13 00:22:28;;;;;;;61.13;28.45;;;6.40;99.90;;;;;;5046256;28;20029;-72
2021/11/13 00:24:54;;;;;;;62.42;27.08;;;6.40;99.90;;;;;;5050770;28;20372;-72
2021/11/13 00:27:19;;;;;;;62.33;26.67;;;6.40;99.90;;;;;;5051229;28;20082;-73
2021/11/13 00:29:45;;;;;;;64.85;28.00;;;6.40;99.90;;;;;;5048867;28;20032;-73
2021/11/13 00:32:11;;;;;;;59.22;26.73;;;6.40;99.90;;;;;;5049281;28;20116;-72
2021/11/13 00:34:38;;;;;;;58.60;26.35;;;6.40;99.90;;;;;;5050991;28;20057;-72
2021/11/13 00:37:04;;;;;;;65.35;29.63;;;6.30;99.90;;;;;;5049992;28;20087;-73
2021/11/13 00:39:30;;;;;;;63.95;28.20;;;6.40;99.90;;;;;;5057876;28;20025;-73
2021/11/13 00:41:56;;;;;;;60.47;27.58;;;6.40;99.90;;;;;;5048858;28;20025;-73
2021/11/13 00:44:21;;;;;;;57.97;27.30;;;6.40;99.90;;;;;;5048506;28;20045;-72
2021/11/13 00:46:47;;;;;;;62.45;27.65;;;6.40;99.90;;;;;;5054194;28;20033;-73
2021/11/13 00:49:13;;;;;;;63.08;26.95;;;6.40;99.90;;;;;;5050080;28;20025;-73
2021/11/13 00:51:40;;;;;;;60.30;27.27;;;6.40;99.90;;;;;;5059723;28;20081;-73
2021/11/13 00:54:06;;;;;;;63.60;27.70;;;6.40;99.90;;;;;;5053916;28;20503;-72
2021/11/13 00:56:32;;;;;;;59.72;27.80;;;6.40;99.90;;;;;;5056744;28;20020;-72
2021/11/13 00:58:58;;;;;;;62.17;26.23;;;6.40;99.90;;;;;;5053009;28;20040;-73
2021/11/13 01:01:24;;;;;;;59.47;27.42;;;6.40;99.90;;;;;;5054012;28;20025;-72
2021/11/13 01:03:50;;;;;;;59.80;26.05;;;6.40;99.90;;;;;;5052453;28;20376;-73
2021/11/13 01:06:16;;;;;;;60.03;26.40;;;6.40;99.90;;;;;;5048214;28;20040;-72
2021/11/13 01:08:47;;;;;;;60.45;27.52;;;6.40;99.90;;;;;;5050856;28;20029;-72
2021/11/13 01:11:14;;;;;;;63.22;27.48;;;6.40;99.90;;;;;;5059490;28;20414;-72
2021/11/13 01:13:39;;;;;;;59.40;27.90;;;6.30;99.90;;;;;;5054494;28;20051;-72
2021/11/13 01:16:05;;;;;;;56.15;25.38;;;6.30;99.90;;;;;;5048244;28;20043;-73
2021/11/13 01:18:31;;;;;;;54.72;25.67;;;6.30;99.90;;;;;;5052854;28;20033;-73
2021/11/13 01:20:56;;;;;;;57.25;26.45;;;6.30;99.90;;;;;;5052261;28;20033;-73
2021/11/13 01:23:22;;;;;;;53.35;27.38;;;6.30;99.90;;;;;;5051089;28;20025;-72
2021/11/13 01:25:48;;;;;;;61.38;27.75;;;6.30;99.90;;;;;;5052137;28;20475;-73
2021/11/13 01:28:14;;;;;;;61.17;26.30;;;6.30;99.90;;;;;;5056387;28;20033;-72
2021/11/13 01:30:40;;;;;;;55.53;25.60;;;6.30;99.90;;;;;;5050421;28;20037;-72
2021/11/13 01:33:06;;;;;;;53.20;24.85;;;6.30;99.90;;;;;;5055658;28;20025;-72
2021/11/13 01:35:31;;;;;;;59.30;26.67;;;6.30;99.90;;;;;;5057365;28;20018;-72
2021/11/13 01:37:57;;;;;;;54.35;25.73;;;6.30;99.90;;;;;;5052523;28;20517;-72
2021/11/13 01:40:25;;;;;;;56.45;25.50;;;6.30;99.90;;;;;;5055169;28;20510;-73
2021/11/13 01:42:54;;;;;;;52.53;25.63;;;6.30;99.90;;;;;;5047636;28;20078;-73
2021/11/13 01:45:22;;;;;;;58.03;25.83;;;6.30;99.90;;;;;;5058638;28;20060;-72
2021/11/13 01:47:48;;;;;;;60.88;27.60;;;6.30;99.90;;;;;;5060163;28;20029;-72
2021/11/13 01:50:20;;;;;;;55.67;26.00;;;6.30;99.90;;;;;;5054089;28;20025;-72
2021/11/13 01:52:47;;;;;;;55.42;24.25;;;6.40;99.90;;;;;;5056101;28;20036;-72
2021/11/13 01:55:14;;;;;;;55.38;26.77;;;6.30;99.90;;;;;;5063346;28;20035;-73
2021/11/13 01:57:50;;;;;;;50.70;23.63;;;6.40;99.90;;;;;;5049740;28;20534;-72
2021/11/13 02:00:30;;;;;;;50.75;23.60;;;6.40;99.90;;;;;;5055782;28;20060;-73
2021/11/13 02:02:56;;;;;;;52.30;25.83;;;6.30;99.90;;;;;;5055724;28;20016;-72
2021/11/13 02:05:22;;;;;;;55.97;25.25;;;6.40;99.90;;;;;;5052526;28;20024;-72
2021/11/13 02:07:48;;;;;;;58.60;26.73;;;6.30;99.90;;;;;;5053482;28;20021;-73
2021/11/13 02:10:14;;;;;;;52.60;24.67;;;6.30;99.90;;;;;;5050469;28;20025;-72
2021/11/13 02:12:40;;;;;;;54.30;25.77;;;6.30;99.90;;;;;;5056321;28;20139;-72
2021/11/13 02:15:07;;;;;;;52.72;24.27;;;6.30;99.90;;;;;;5052448;28;20021;-72
2021/11/13 02:17:33;;;;;;;54.28;24.58;;;6.30;99.90;;;;;;5050118;28;20433;-72
2021/11/13 02:20:25;;;;;;;52.65;25.73;;;6.30;99.90;;;;;;5048730;28;20024;-72
2021/11/13 02:22:53;;;;;;;50.47;25.17;;;6.30;99.90;;;;;;5045840;28;20032;-72
2021/11/13 02:25:22;;;;;;;53.97;26.05;;;6.30;99.90;;;;;;5051621;28;20095;-72
2021/11/13 02:27:48;;;;;;;54.58;24.95;;;6.30;99.90;;;;;;5051393;28;20052;-73
2021/11/13 02:30:15;;;;;;;48.05;23.40;;;6.40;99.90;;;;;;5055504;28;20093;-72
2021/11/13 02:32:41;;;;;;;47.63;23.02;;;6.40;99.90;;;;;;5045717;28;20111;-72
2021/11/13 02:35:09;;;;;;;52.53;24.50;;;6.40;99.90;;;;;;5050733;28;20025;-73
2021/11/13 02:37:35;;;;;;;48.63;24.35;;;6.40;99.90;;;;;;5050919;28;20098;-72
2021/11/13 02:40:03;;;;;;;47.60;25.33;;;6.40;99.90;;;;;;5055482;28;20040;-72
2021/11/13 02:42:29;;;;;;;47.58;25.02;;;6.40;99.90;;;;;;5048810;28;20024;-72
2021/11/13 02:44:55;;;;;;;47.13;23.08;;;6.40;99.90;;;;;;5057148;28;20613;-73
2021/11/13 02:47:21;;;;;;;49.22;23.52;;;6.40;99.90;;;;;;5053205;28;20136;-72
2021/11/13 02:49:48;;;;;;;45.30;23.15;;;6.40;99.90;;;;;;5050745;28;20024;-72
2021/11/13 02:52:14;;;;;;;46.38;23.45;;;6.40;99.90;;;;;;5049497;28;20074;-72
2021/11/13 02:54:45;;;;;;;49.47;24.20;;;6.40;99.90;;;;;;5049738;28;20551;-72
2021/11/13 02:57:11;;;;;;;49.90;25.17;;;6.50;99.90;;;;;;5050631;28;20032;-72
2021/11/13 02:59:42;;;;;;;46.28;22.73;;;6.40;99.90;;;;;;5050030;28;20056;-72
2021/11/13 03:02:08;;;;;;;47.97;23.15;;;6.40;99.90;;;;;;5052194;28;20164;-72
2021/11/13 03:04:34;;;;;;;45.40;22.45;;;6.50;99.90;;;;;;5049100;28;20066;-72
2021/11/13 03:07:00;;;;;;;47.58;24.25;;;6.50;99.90;;;;;;5047142;28;20024;-73
2021/11/13 03:09:25;;;;;;;43.65;22.70;;;6.50;99.90;;;;;;5048577;28;20029;-72
2021/11/13 03:11:51;;;;;;;43.50;21.85;;;6.50;99.90;;;;;;5049713;28;20520;-72
2021/11/13 03:14:17;;;;;;;40.00;21.42;;;6.50;99.90;;;;;;5050012;28;20033;-72
2021/11/13 03:16:42;;;;;;;46.72;22.85;;;6.50;99.90;;;;;;5050675;28;20028;-73
2021/11/13 03:19:08;;;;;;;47.72;23.35;;;6.50;99.90;;;;;;5049050;28;20043;-72
2021/11/13 03:21:34;;;;;;;45.05;23.35;;;6.50;99.90;;;;;;5050106;28;20109;-73
2021/11/13 03:24:02;;;;;;;47.70;24.50;;;6.50;99.90;;;;;;5045737;28;20382;-72
2021/11/13 03:26:29;;;;;;;51.25;25.33;;;6.50;99.90;;;;;;5051227;28;20025;-73
2021/11/13 03:29:00;;;;;;;40.40;21.90;;;6.50;99.90;;;;;;5049665;28;20094;-72
2021/11/13 03:31:28;;;;;;;48.70;23.98;;;6.50;99.90;;;;;;5047902;28;20450;-72
2021/11/13 03:33:54;;;;;;;46.83;22.90;;;6.50;99.90;;;;;;5050237;28;20463;-73
2021/11/13 03:36:21;;;;;;;39.88;22.95;;;6.50;99.90;;;;;;5050536;28;20107;-72
2021/11/13 03:38:48;;;;;;;44.78;22.88;;;6.50;99.90;;;;;;5047564;28;20063;-72
2021/11/13 03:41:15;;;;;;;43.58;21.73;;;6.60;99.90;;;;;;5045052;28;20032;-72
2021/11/13 03:43:41;;;;;;;45.20;21.75;;;6.60;99.90;;;;;;5050509;28;20044;-72
2021/11/13 03:46:08;;;;;;;37.97;20.92;;;6.60;99.90;;;;;;5047322;28;20071;-72
2021/11/13 03:48:35;;;;;;;40.95;22.30;;;6.60;99.90;;;;;;5046885;28;20067;-73
2021/11/13 03:51:00;;;;;;;45.97;23.10;;;6.60;99.90;;;;;;5047984;28;20029;-72
2021/11/13 03:53:26;;;;;;;44.22;23.58;;;6.60;99.90;;;;;;5044098;28;20378;-72
2021/11/13 03:55:52;;;;;;;43.90;22.38;;;6.60;99.90;;;;;;5044285;28;20446;-73
2021/11/13 03:58:18;;;;;;;44.00;22.38;;;6.60;99.90;;;;;;5045972;28;20028;-72
2021/11/13 04:00:44;;;;;;;47.97;23.45;;;6.60;99.90;;;;;;5045924;28;20094;-72
2021/11/13 04:03:10;;;;;;;45.38;23.73;;;6.70;99.90;;;;;;5050305;28;20033;-73
2021/11/13 04:05:35;;;;;;;43.20;23.95;;;6.70;99.90;;;;;;5049323;28;20033;-72
2021/11/13 04:08:03;;;;;;;43.60;22.38;;;6.70;99.90;;;;;;5047519;28;20021;-72
2021/11/13 04:10:30;;;;;;;43.97;21.95;;;6.70;99.90;;;;;;5051128;28;20065;-72
2021/11/13 04:12:55;;;;;;;45.58;24.05;;;6.70;99.90;;;;;;5047304;28;20020;-73
2021/11/13 04:15:21;;;;;;;43.85;22.80;;;6.70;99.90;;;;;;5046851;28;20128;-72
2021/11/13 04:17:49;;;;;;;46.13;23.45;;;6.70;99.90;;;;;;5049657;28;20514;-73
2021/11/13 04:20:15;;;;;;;46.05;24.10;;;6.70;99.90;;;;;;5049285;28;20021;-72
2021/11/13 04:22:41;;;;;;;44.53;22.73;;;6.70;99.90;;;;;;5053678;28;20040;-73
2021/11/13 04:25:08;;;;;;;47.72;24.00;;;6.70;99.90;;;;;;5054957;28;20096;-73
2021/11/13 04:27:34;;;;;;;46.75;23.92;;;6.60;99.90;;;;;;5053072;28;20119;-73
2021/11/13 04:30:00;;;;;;;44.33;22.52;;;6.70;99.90;;;;;;5053654;28;20033;-72
2021/11/13 04:32:29;;;;;;;46.80;23.15;;;6.70;99.90;;;;;;5045864;28;20044;-73
2021/11/13 04:37:25;;;;;;;43.40;22.08;;;6.70;99.90;;;;;;5050723;28;20501;-73
2021/11/13 04:39:51;;;;;;;47.28;23.80;;;6.60;99.90;;;;;;5053827;28;20179;-72
2021/11/13 04:42:17;;;;;;;45.90;22.63;;;6.60;99.90;;;;;;5052904;28;20549;-73
2021/11/13 04:44:44;;;;;;;48.00;24.05;;;6.60;99.90;;;;;;5050051;28;20028;-72
2021/11/13 04:47:10;;;;;;;43.65;22.40;;;6.60;99.90;;;;;;5048895;28;20155;-72
2021/11/13 04:49:37;;;;;;;44.40;22.42;;;6.60;99.90;;;;;;5052203;28;20021;-72
2021/11/13 04:52:04;;;;;;;46.85;22.52;;;6.50;99.90;;;;;;5053251;28;20037;-72
2021/11/13 04:54:31;;;;;;;49.25;24.83;;;6.50;99.90;;;;;;5054513;28;20032;-72
2021/11/13 04:56:57;;;;;;;45.90;23.23;;;6.50;99.90;;;;;;5053332;28;20056;-73
2021/11/13 04:59:23;;;;;;;48.80;24.42;;;6.50;99.90;;;;;;5051787;28;20118;-73
2021/11/13 05:01:49;;;;;;;54.08;25.83;;;6.50;99.90;;;;;;5050267;28;20032;-72
2021/11/13 05:04:14;;;;;;;53.83;25.05;;;6.50;99.90;;;;;;5048397;28;20021;-73
2021/11/13 05:06:40;;;;;;;51.15;24.75;;;6.50;99.90;;;;;;5051085;28;20064;-73
2021/11/13 05:09:06;;;;;;;53.38;25.23;;;6.40;99.90;;;;;;5046135;28;20414;-72
2021/11/13 05:11:31;;;;;;;50.92;24.92;;;6.40;99.90;;;;;;5049746;28;20071;-73
2021/11/13 05:13:57;;;;;;;48.30;24.92;;;6.40;99.90;;;;;;5047676;28;20486;-73
2021/11/13 05:16:23;;;;;;;51.75;25.17;;;6.40;99.90;;;;;;5045019;28;20152;-72
2021/11/13 05:18:48;;;;;;;52.00;25.58;;;6.40;99.90;;;;;;5045811;28;20118;-73
2021/11/13 05:21:14;;;;;;;52.53;25.08;;;6.40;99.90;;;;;;5045755;28;20037;-72
2021/11/13 05:23:40;;;;;;;50.72;24.75;;;6.30;99.90;;;;;;5046323;28;20025;-73
2021/11/13 05:26:07;;;;;;;51.08;24.80;;;6.40;99.90;;;;;;5048973;28;20074;-72
2021/11/13 05:28:33;;;;;;;49.22;24.00;;;6.40;99.90;;;;;;5046055;28;20391;-72
2021/11/13 05:30:59;;;;;;;52.08;25.52;;;6.40;99.90;;;;;;5046753;28;20029;-72
2021/11/13 05:33:26;;;;;;;50.05;23.75;;;6.30;99.90;;;;;;5045117;28;20457;-72
2021/11/13 05:35:52;;;;;;;50.78;24.42;;;6.30;99.90;;;;;;5046303;28;20367;-72
2021/11/13 05:38:18;;;;;;;50.17;24.15;;;6.30;99.90;;;;;;5045399;28;20039;-72
2021/11/13 05:40:45;;;;;;;48.03;23.92;;;6.40;99.90;;;;;;5044738;28;20063;-72
2021/11/13 05:43:11;;;;;;;54.38;25.85;;;6.30;99.90;;;;;;5045801;28;20036;-72
2021/11/13 05:45:38;;;;;;;49.38;25.73;;;6.30;99.90;;;;;;5043317;28;20036;-72
2021/11/13 05:48:04;;;;;;;49.70;25.05;;;6.30;99.90;;;;;;5044468;28;20438;-72
2021/11/13 05:50:30;;;;;;;56.63;24.67;;;6.30;99.90;;;;;;5044503;28;20395;-72
2021/11/13 05:52:56;;;;;;;46.53;24.55;;;6.30;99.90;;;;;;5046407;28;20025;-72
2021/11/13 05:55:24;;;;;;;51.50;25.08;;;6.30;99.90;;;;;;5045676;28;20028;-72
2021/11/13 05:57:54;;;;;;;59.47;26.10;;;6.30;99.90;;;;;;5045960;28;20037;-74
2021/11/13 06:00:22;;;;;;;49.65;25.58;;;6.30;99.90;;;;;;5042418;28;20550;-72
2021/11/13 06:02:48;;;;;;;51.25;24.88;;;6.30;99.90;;;;;;5044746;28;20033;-73
2021/11/13 06:05:15;;;;;;;54.05;25.30;;;6.30;99.90;;;;;;5042710;28;20036;-72
2021/11/13 06:07:41;;;;;;;48.30;23.38;;;6.30;99.90;;;;;;5046515;28;20033;-72
2021/11/13 06:10:09;;;;;;;53.85;26.30;;;6.30;99.90;;;;;;5043940;28;20049;-72
2021/11/13 06:12:35;;;;;;;51.78;25.02;;;6.30;99.90;;;;;;5043745;28;20034;-73
2021/11/13 06:15:01;;;;;;;59.00;27.35;;;6.30;99.90;;;;;;5044051;28;20437;-73
2021/11/13 06:17:30;;;;;;;52.15;26.33;;;6.30;99.90;;;;;;5045559;28;20037;-74
2021/11/13 06:19:56;;;;;;;58.78;26.95;;;6.20;99.90;;;;;;5043885;28;20108;-73
2021/11/13 06:22:21;;;;;;;49.20;25.15;;;6.20;99.90;;;;;;5045088;28;20032;-73
2021/11/13 06:24:47;;;;;;;58.45;27.33;;;6.20;99.90;;;;;;5047027;28;20390;-73
2021/11/13 06:27:15;;;;;;;56.03;25.55;;;6.20;99.90;;;;;;5044160;28;20495;-73
2021/11/13 06:29:42;;;;;;;51.80;24.88;;;6.20;99.90;;;;;;5043400;28;20059;-73
2021/11/13 06:32:08;;;;;;;50.78;25.05;;;6.20;99.90;;;;;;5043180;28;20094;-73
2021/11/13 06:34:34;;;;;;;52.20;25.55;;;6.20;99.90;;;;;;5042592;28;20025;-73
2021/11/13 06:37:00;;;;;;;46.83;24.35;;;6.20;99.90;;;;;;5042593;28;20037;-73
2021/11/13 06:39:25;;;;;;;57.63;27.60;;;6.20;99.90;;;;;;5044304;28;20040;-73
2021/11/13 06:41:51;;;;;;;55.30;25.95;;;6.30;99.90;;;;;;5043776;28;20143;-73
2021/11/13 06:44:17;;;;;;;57.35;25.75;;;6.20;99.90;;;;;;5046554;28;20394;-73
2021/11/13 06:46:43;;;;;;;52.85;26.33;;;6.20;99.90;;;;;;5041724;28;20033;-73
2021/11/13 06:49:08;;;;;;;50.97;24.90;;;6.20;99.90;;;;;;5038661;28;20029;-73
2021/11/13 06:51:34;;;;;;;55.10;24.88;;;6.10;99.90;;;;;;5043618;28;20548;-73
2021/11/13 06:54:00;;;;;;;53.22;26.05;;;6.20;99.90;;;;;;5031418;28;20972;-73
2021/11/13 06:56:26;;;;;;;51.60;26.40;;;6.20;99.90;;;;;;5040241;28;20025;-73
2021/11/13 06:58:52;;;;;;;54.55;27.23;;;6.20;99.90;;;;;;5042036;28;20032;-73
2021/11/13 07:01:18;;;;;;;52.20;24.52;;;6.20;99.90;;;;;;5038312;28;20765;-72
2021/11/13 07:03:43;;;;;;;52.50;25.92;;;6.20;99.90;;;;;;5046008;28;20037;-73
2021/11/13 07:06:09;;;;;;;54.17;25.92;;;6.20;99.90;;;;;;5040205;28;20037;-73
2021/11/13 07:08:35;;;;;;;51.28;25.05;;;6.20;99.90;;;;;;5040071;28;20499;-73
2021/11/13 07:11:01;;;;;;;52.40;26.25;;;6.20;99.90;;;;;;5044453;28;20033;-73
2021/11/13 07:13:27;;;;;;;49.90;25.00;;;6.20;99.90;;;;;;5038658;28;20407;-73
2021/11/13 07:15:53;;;;;;;50.55;24.33;;;6.20;99.90;;;;;;5045286;28;20056;-73
2021/11/13 07:18:19;;;;;;;51.63;23.80;;;6.20;99.90;;;;;;5041927;28;20033;-73
2021/11/13 07:20:55;;;;;;;45.53;24.02;;;6.30;99.90;;;;;;5046808;28;20075;-73
2021/11/13 07:23:21;;;;;;;49.13;25.23;;;6.40;99.90;;;;;;5048292;28;20060;-73
2021/11/13 07:25:47;;;;;;;49.20;23.67;;;6.40;99.90;;;;;;5045055;28;20427;-73
2021/11/13 07:28:15;;;;;;;46.15;23.80;;;6.40;99.90;;;;;;5048366;28;20025;-73
2021/11/13 07:30:44;;;;;;;52.15;23.70;;;6.40;99.90;;;;;;5047448;28;20437;-73
2021/11/13 07:33:11;;;;;;;47.75;23.05;;;6.40;99.90;;;;;;5048012;28;20025;-74
2021/11/13 07:35:39;;;;;;;45.47;23.05;;;6.40;99.90;;;;;;5043930;28;20060;-73
2021/11/13 07:38:04;;;;;;;48.83;24.20;;;6.40;99.90;;;;;;5046145;28;20038;-73
2021/11/13 07:40:32;;;;;;;43.40;22.08;;;6.40;99.90;;;;;;5046811;28;20029;-74
2021/11/13 07:43:00;;;;;;;46.33;22.60;;;6.40;99.90;;;;;;5053216;28;20146;-73
2021/11/13 07:45:29;;;;;;;46.42;23.27;;;6.40;99.90;;;;;;5045074;28;20029;-74
2021/11/13 07:47:55;;;;;;;45.45;22.50;;;6.40;99.90;;;;;;5041963;28;20036;-74
2021/11/13 07:50:21;;;;;;;48.30;21.00;;;6.40;99.90;;;;;;5046334;28;20411;-73
2021/11/13 07:52:47;;;;;;;44.45;24.15;;;6.40;99.90;;;;;;5048279;28;20100;-74
2021/11/13 07:55:15;;;;;;;48.33;23.60;;;6.40;99.90;;;;;;5041393;28;20067;-74
2021/11/13 07:57:41;;;;;;;43.53;22.70;;;6.40;99.90;;;;;;5047830;28;20141;-74
2021/11/13 08:00:10;;;;;;;44.33;22.85;;;6.40;99.90;;;;;;5047382;28;20037;-72
2021/11/13 08:02:36;;;;;;;46.90;23.48;;;6.40;99.90;;;;;;5045349;28;20040;-73
2021/11/13 08:05:02;;;;;;;44.97;23.38;;;6.40;99.90;;;;;;5044973;28;20030;-73
2021/11/13 08:07:27;;;;;;;42.72;22.27;;;6.40;99.90;;;;;;5046264;28;20060;-73
2021/11/13 08:09:53;;;;;;;40.95;22.90;;;6.50;99.90;;;;;;5043617;28;20459;-73
2021/11/13 08:12:22;;;;;;;40.13;21.65;;;6.50;99.90;;;;;;5041947;28;20025;-73
2021/11/13 08:14:47;;;;;;;46.53;23.50;;;6.50;99.90;;;;;;5045829;28;20091;-73
2021/11/13 08:17:13;;;;;;;40.10;20.75;;;6.50;99.90;;;;;;5044094;28;20428;-73
2021/11/13 08:19:45;;;;;;;39.25;21.55;;;6.50;99.90;;;;;;5043060;28;20035;-73
2021/11/13 08:22:11;;;;;;;37.15;20.13;;;6.60;99.90;;;;;;5047608;28;20024;-74
2021/11/13 08:24:37;;;;;;;44.13;22.73;;;6.60;99.90;;;;;;5047388;28;20029;-73
2021/11/13 08:27:04;;;;;;;44.65;22.50;;;6.60;99.90;;;;;;5047611;28;20024;-73
2021/11/13 08:29:30;;;;;;;40.55;21.15;;;6.60;99.90;;;;;;5046220;28;20026;-73
2021/11/13 08:31:56;;;;;;;41.90;22.17;;;6.60;99.90;;;;;;5045204;28;20033;-73
2021/11/13 08:34:22;;;;;;;44.33;22.48;;;6.60;99.90;;;;;;5048395;28;20682;-73
2021/11/13 08:36:48;;;;;;;45.05;22.10;;;6.50;99.90;;;;;;5049175;28;20398;-73
2021/11/13 08:39:13;;;;;;;42.72;23.35;;;6.50;99.90;;;;;;5051015;28;20060;-73
2021/11/13 08:41:39;;;;;;;46.83;23.38;;;6.50;99.90;;;;;;5047352;28;20640;-73
2021/11/13 08:44:05;;;;;;;39.90;22.52;;;6.50;99.90;;;;;;5041666;28;20430;-73
2021/11/13 08:46:32;;;;;;;40.38;20.90;;;6.50;99.90;;;;;;5039818;28;20140;-73
2021/11/13 08:48:58;;;;;;;39.20;20.88;;;6.50;99.90;;;;;;5041706;28;20029;-73
2021/11/13 08:51:24;;;;;;;41.50;21.13;;;6.60;99.90;;;;;;5041491;28;20055;-74
2021/11/13 08:53:53;;;;;;;40.63;21.30;;;6.60;99.90;;;;;;5048647;28;20013;-73
2021/11/13 08:56:31;;;;;;;42.60;21.55;;;6.60;99.90;;;;;;5041702;28;20025;-73
2021/11/13 08:58:58;;;;;;;45.13;23.02;;;6.60;99.90;;;;;;5043515;28;20057;-73
2021/11/13 09:01:26;;;;;;;40.53;21.90;;;6.60;99.90;;;;;;5035495;28;20071;-73
2021/11/13 09:03:52;;;;;;;41.42;22.10;;;6.60;99.90;;;;;;5043029;28;20025;-73
2021/11/13 09:06:22;;;;;;;40.78;23.23;;;6.60;99.90;;;;;;5045374;28;20124;-73
2021/11/13 09:08:49;;;;;;;41.90;21.65;;;6.60;99.90;;;;;;5045938;28;20494;-73
2021/11/13 09:11:18;;;;;;;38.03;21.33;;;6.70;99.90;;;;;;5043213;28;20056;-73
2021/11/13 09:13:44;;;;;;;36.65;20.50;;;6.70;99.90;;;;;;5042306;28;20022;-74
2021/11/13 09:16:11;;;;;;;42.33;21.38;;;6.80;99.90;;;;;;5049213;28;20451;-74
2021/11/13 09:18:38;;;;;;;36.28;20.35;;;6.80;99.90;;;;;;5048150;28;20060;-74
2021/11/13 09:21:06;;;;;;;35.90;18.92;;;6.80;99.90;;;;;;5046639;28;20037;-74
2021/11/13 09:23:32;;;;;;;39.47;21.42;;;6.90;99.90;;;;;;5044069;28;20036;-73
2021/11/13 09:25:59;;;;;;;38.78;20.48;;;6.90;99.90;;;;;;5044687;28;20029;-73
2021/11/13 09:28:24;;;;;;;36.35;19.98;;;6.90;99.90;;;;;;5042331;28;20029;-73
2021/11/13 09:30:50;;;;;;;38.95;21.42;;;6.90;99.90;;;;;;5044923;28;20025;-73
2021/11/13 09:33:16;;;;;;;35.55;19.42;;;6.90;99.90;;;;;;5041485;28;20026;-73
2021/11/13 09:35:44;;;;;;;37.15;20.90;;;7.00;99.90;;;;;;5049460;28;20033;-73
2021/11/13 09:38:10;;;;;;;40.33;21.95;;;7.00;99.90;;;;;;5052704;28;20036;-74
2021/11/13 09:40:37;;;;;;;35.67;19.30;;;6.90;99.90;;;;;;5049955;28;20033;-74
2021/11/13 09:43:05;;;;;;;39.70;20.75;;;6.90;99.90;;;;;;5046624;28;20025;-73
2021/11/13 09:45:32;;;;;;;38.88;21.92;;;6.90;99.90;;;;;;5048077;28;20040;-73
2021/11/13 09:48:00;;;;;;;37.22;20.27;;;6.90;99.90;;;;;;5048356;28;20033;-73
2021/11/13 09:50:29;;;;;;;36.83;19.95;;;6.90;99.90;;;;;;5047435;28;20036;-73
2021/11/13 09:52:55;;;;;;;37.35;20.83;;;6.90;99.90;;;;;;5053058;28;20417;-74
2021/11/13 09:55:27;;;;;;;32.30;19.08;;;6.90;99.90;;;;;;5048089;28;20171;-73
2021/11/13 09:57:56;;;;;;;39.30;20.15;;;6.90;99.90;;;;;;5063534;28;20033;-74
2021/11/13 10:00:26;;;;;;;38.30;20.88;;;6.90;99.90;;;;;;5052879;28;20017;-74
2021/11/13 10:02:52;;;;;;;35.70;20.38;;;6.90;99.90;;;;;;5050856;28;20071;-73
2021/11/13 10:05:19;;;;;;;33.55;19.65;;;7.00;99.90;;;;;;5053739;28;20029;-73
2021/11/13 10:07:45;;;;;;;37.58;20.85;;;7.00;99.90;;;;;;5048550;28;20025;-73
2021/11/13 10:10:27;;;;;;;38.33;21.15;;;7.00;99.90;;;;;;5050158;28;20029;-73
2021/11/13 10:12:53;;;;;;;;;;;7.00;99.90;;;;;;5050743;28;20024;-74
2021/11/13 10:15:37;;;;;;;33.47;17.50;;;7.10;99.90;;;;;;5049821;28;19908;-73
2021/11/13 10:18:06;;;;;;;34.75;18.80;;;7.10;99.90;;;;;;5045351;28;20036;-73
2021/11/13 10:20:32;;;;;;;40.55;22.60;;;7.20;99.90;;;;;;5043091;28;20025;-73
2021/11/13 10:22:58;;;;;;;35.28;19.90;;;7.30;99.90;;;;;;5044910;28;20163;-75
2021/11/13 10:25:24;;;;;;;30.98;17.40;;;7.30;99.90;;;;;;5049442;28;20112;-73
2021/11/13 10:28:13;;;;;;;29.88;17.88;;;7.40;99.90;;;;;;5048931;28;20029;-73
2021/11/13 10:30:42;;;;;;;31.90;18.42;;;7.40;99.90;;;;;;5049048;28;20021;-74
2021/11/13 10:33:08;;;;;;;27.10;16.35;;;7.40;99.90;;;;;;5050628;28;20025;-74
2021/11/13 10:35:50;;;;;;;28.45;17.23;;;7.50;99.90;;;;;;5049716;28;20025;-73
2021/11/13 10:38:25;;;;;;;30.80;16.50;;;7.50;99.90;;;;;;5043452;28;20074;-73
2021/11/13 10:41:19;;;;;;;30.40;18.05;;;7.50;99.90;;;;;;5048723;28;20053;-74
2021/11/13 10:43:46;;;;;;;30.45;16.35;;;7.50;99.90;;;;;;5050534;28;20087;-73
2021/11/13 10:46:16;;;;;;;31.75;18.98;;;7.60;99.90;;;;;;5041241;28;20428;-72
2021/11/13 10:48:45;;;;;;;30.15;17.35;;;7.60;99.90;;;;;;5043566;28;20671;-74
2021/11/13 10:51:19;;;;;;;32.90;18.38;;;7.60;99.90;;;;;;5045857;28;20103;-74
2021/11/13 10:53:46;;;;;;;31.55;17.33;;;7.60;99.90;;;;;;5046289;28;20021;-73
2021/11/13 10:56:14;;;;;;;31.50;17.63;;;7.60;99.90;;;;;;5044350;28;20033;-74
2021/11/13 10:58:43;;;;;;;31.90;16.90;;;7.60;99.90;;;;;;5044195;28;20033;-74
2021/11/13 11:01:25;;;;;;;29.13;15.68;;;7.70;99.90;;;;;;5044474;28;20049;-73
2021/11/13 11:03:53;;;;;;;26.63;15.95;;;7.80;99.90;;;;;;5044405;28;20061;-74
2021/11/13 11:06:24;;;;;;;28.52;14.88;;;7.90;99.90;;;;;;5041734;28;20056;-74
2021/11/13 11:08:50;;;;;;;29.65;17.48;;;7.90;99.90;;;;;;5046366;28;20025;-74
2021/11/13 11:11:36;;;;;;;25.10;15.70;;;7.90;99.90;;;;;;5050704;28;20029;-73
2021/11/13 11:14:04;;;;;;;32.17;17.95;;;7.90;99.90;;;;;;5047758;28;20063;-73
2021/11/13 11:16:34;;;;;;;28.55;17.17;;;7.90;99.90;;;;;;5049555;28;20021;-73
2021/11/13 11:19:10;;;;;;;31.93;17.83;;;7.90;99.90;;;;;;5045885;28;20380;-74
2021/11/13 11:21:50;;;;;;;33.90;17.08;;;7.80;99.90;;;;;;5048953;28;20037;-74
2021/11/13 11:24:21;;;;;;;29.23;17.20;;;7.80;99.90;;;;;;5051359;28;20425;-74
2021/11/13 11:26:58;;;;;;;26.50;15.23;;;7.80;99.90;;;;;;5060344;28;20021;-74
2021/11/13 11:29:25;;;;;;;30.20;17.27;;;7.80;99.90;;;;;;5049985;28;20041;-73
2021/11/13 11:31:53;;;;;;;29.73;16.55;;;7.70;99.90;;;;;;5049328;28;20427;-73
2021/11/13 11:34:27;;;;;;;30.77;16.80;;;7.70;99.90;;;;;;5058171;28;20478;-73
2021/11/13 11:36:56;;;;;;;30.98;17.08;;;7.80;99.90;;;;;;5050780;28;20039;-74
2021/11/13 11:39:22;;;;;;;30.10;17.83;;;7.80;99.90;;;;;;5049870;28;20032;-74
2021/11/13 11:41:50;;;;;;;35.97;17.83;;;7.80;99.90;;;;;;5052033;28;20053;-74
2021/11/13 11:44:16;;;;;;;33.90;17.48;;;7.80;99.90;;;;;;5049216;28;20036;-74
2021/11/13 11:46:42;;;;;;;36.97;18.40;;;7.80;99.90;;;;;;5053984;28;20035;-74
2021/11/13 11:49:13;;;;;;;30.17;17.15;;;7.80;99.90;;;;;;5047785;28;20044;-73
2021/11/13 11:51:40;;;;;;;33.90;18.75;;;7.80;99.90;;;;;;5049669;28;20263;-74
2021/11/13 11:54:08;;;;;;;33.65;18.10;;;7.80;99.90;;;;;;5050988;28;20049;-73
2021/11/13 11:56:34;;;;;;;28.48;17.35;;;7.80;99.90;;;;;;5047311;28;20024;-74
2021/11/13 11:59:03;;;;;;;37.38;19.27;;;7.80;99.90;;;;;;5056770;28;20024;-73
2021/11/13 12:01:32;;;;;;;32.83;17.92;;;7.80;99.90;;;;;;5050059;28;20091;-73
2021/11/13 12:04:20;;;;;;;35.13;19.20;;;7.80;99.90;;;;;;5053203;28;20059;-73
2021/11/13 12:06:55;;;;;;;35.85;19.75;;;7.90;99.90;;;;;;5045646;28;20041;-73
2021/11/13 12:09:24;;;;;;;33.17;18.02;;;7.90;99.90;;;;;;5053461;28;20498;-74
2021/11/13 12:12:11;;;;;;;33.55;18.45;;;7.80;99.90;;;;;;5047504;28;20040;-74
2021/11/13 12:14:37;;;;;;;31.60;18.20;;;7.90;99.90;;;;;;5050066;28;20029;-74
2021/11/13 12:17:22;;;;;;;35.50;18.23;;;7.90;99.90;;;;;;5054385;28;20040;-74
2021/11/13 12:20:11;;;;;;;32.83;18.55;;;7.90;99.90;;;;;;5052963;28;20025;-74
2021/11/13 12:22:58;;;;;;;28.80;15.93;;;7.90;99.90;;;;;;5051055;28;20044;-74
2021/11/13 12:25:31;;;;;;;29.05;16.08;;;7.90;99.90;;;;;;5050628;28;20021;-74
2021/11/13 12:28:08;;;;;;;28.90;16.27;;;7.90;99.90;;;;;;5047595;28;20552;-74
2021/11/13 12:31:04;;;;;;;27.60;15.40;;;7.90;99.90;;;;;;5050050;28;20123;-74
2021/11/13 12:33:30;;;;;;;26.67;14.88;;;8.00;99.90;;;;;;5046831;28;20100;-73
2021/11/13 12:35:59;;;;;;;28.05;15.48;;;8.10;99.90;;;;;;5055822;28;20104;-73
2021/11/13 12:38:31;;;;;;;24.42;12.95;;;8.10;99.90;;;;;;5049149;28;20086;-74
2021/11/13 12:41:11;;;;;;;24.25;13.80;;;8.10;99.90;;;;;;5050239;28;20028;-73
2021/11/13 12:43:55;;;;;;;23.35;13.48;;;8.20;99.90;;;;;;5045762;28;20510;-72